sensor_id;sensor_type;location;lat;lon;timestamp;P1;durP1;ratioP1;P2;durP2;ratioP2
793;SDS011;380;48.738;9.214;2022-09-27T00:00:25;2.05;;;0.70;;
793;SDS011;380;48.738;9.214;2022-09-27T00:03:02;2.45;;;0.73;;
793;SDS011;380;48.738;9.214;2022-09-27T00:05:38;0.88;;;0.50;;
793;SDS011;380;48.738;9.214;2022-09-27T00:08:07;0.70;;;0.38;;
793;SDS011;380;48.738;9.214;2022-09-27T00:11:24;1.55;;;0.75;;
793;SDS011;380;48.738;9.214;2022-09-27T00:13:48;1.40;;;0.63;;
793;SDS011;380;48.738;9.214;2022-09-27T00:19:30;2.45;;;0.95;;
793;SDS011;380;48.738;9.214;2022-09-27T00:24:56;0.98;;;0.60;;
793;SDS011;380;48.738;9.214;2022-09-27T00:27:34;0.30;;;0.20;;
793;SDS011;380;48.738;9.214;2022-09-27T00:30:06;2.10;;;1.30;;
793;SDS011;380;48.738;9.214;2022-09-27T00:32:36;2.35;;;0.80;;
793;SDS011;380;48.738;9.214;2022-09-27T00:35:14;1.02;;;0.47;;
793;SDS011;380;48.738;9.214;2022-09-27T00:37:54;1.10;;;0.63;;
793;SDS011;380;48.738;9.214;2022-09-27T00:40:33;2.53;;;0.90;;
793;SDS011;380;48.738;9.214;2022-09-27T00:43:02;1.15;;;0.32;;
793;SDS011;380;48.738;9.214;2022-09-27T00:45:37;0.40;;;0.25;;
793;SDS011;380;48.738;9.214;2022-09-27T00:48:11;0.88;;;0.50;;
793;SDS011;380;48.738;9.214;2022-09-27T00:56:14;0.82;;;0.50;;
793;SDS011;380;48.738;9.214;2022-09-27T00:58:49;1.08;;;0.38;;
793;SDS011;380;48.738;9.214;2022-09-27T01:01:42;5.70;;;0.50;;
793;SDS011;380;48.738;9.214;2022-09-27T01:04:11;2.00;;;0.77;;
793;SDS011;380;48.738;9.214;2022-09-27T01:06:41;5.28;;;0.80;;
793;SDS011;380;48.738;9.214;2022-09-27T01:09:20;1.23;;;0.40;;
793;SDS011;380;48.738;9.214;2022-09-27T01:11:57;0.93;;;0.43;;
793;SDS011;380;48.738;9.214;2022-09-27T01:42:13;0.73;;;0.40;;
793;SDS011;380;48.738;9.214;2022-09-27T01:53:53;1.10;;;0.60;;
793;SDS011;380;48.738;9.214;2022-09-27T01:56:31;0.60;;;0.30;;
793;SDS011;380;48.738;9.214;2022-09-27T01:59:09;0.50;;;0.30;;
793;SDS011;380;48.738;9.214;2022-09-27T02:01:40;0.68;;;0.38;;
793;SDS011;380;48.738;9.214;2022-09-27T02:04:12;1.02;;;0.40;;
793;SDS011;380;48.738;9.214;2022-09-27T02:06:44;0.47;;;0.20;;
793;SDS011;380;48.738;9.214;2022-09-27T02:12:07;1.45;;;0.38;;
793;SDS011;380;48.738;9.214;2022-09-27T02:17:42;0.93;;;0.40;;
793;SDS011;380;48.738;9.214;2022-09-27T02:20:40;0.43;;;0.20;;
793;SDS011;380;48.738;9.214;2022-09-27T02:29:06;1.13;;;0.50;;
793;SDS011;380;48.738;9.214;2022-09-27T02:31:36;1.23;;;0.57;;
793;SDS011;380;48.738;9.214;2022-09-27T02:34:23;1.27;;;0.52;;
793;SDS011;380;48.738;9.214;2022-09-27T02:36:56;1.30;;;0.55;;
793;SDS011;380;48.738;9.214;2022-09-27T02:39:37;0.22;;;0.17;;
793;SDS011;380;48.738;9.214;2022-09-27T02:42:19;0.77;;;0.40;;
793;SDS011;380;48.738;9.214;2022-09-27T02:45:02;0.43;;;0.20;;
793;SDS011;380;48.738;9.214;2022-09-27T02:53:38;2.20;;;0.38;;
793;SDS011;380;48.738;9.214;2022-09-27T02:56:11;2.95;;;0.20;;
793;SDS011;380;48.738;9.214;2022-09-27T03:05:02;0.63;;;0.20;;
793;SDS011;380;48.738;9.214;2022-09-27T03:07:30;0.40;;;0.20;;
793;SDS011;380;48.738;9.214;2022-09-27T03:10:14;0.38;;;0.25;;
793;SDS011;380;48.738;9.214;2022-09-27T03:12:49;1.73;;;0.40;;
793;SDS011;380;48.738;9.214;2022-09-27T03:15:29;0.98;;;0.40;;
793;SDS011;380;48.738;9.214;2022-09-27T03:20:51;1.05;;;0.38;;
793;SDS011;380;48.738;9.214;2022-09-27T03:23:29;1.02;;;0.45;;
793;SDS011;380;48.738;9.214;2022-09-27T03:32:02;0.52;;;0.30;;
793;SDS011;380;48.738;9.214;2022-09-27T03:34:28;2.97;;;0.32;;
793;SDS011;380;48.738;9.214;2022-09-27T03:37:32;0.40;;;0.20;;
793;SDS011;380;48.738;9.214;2022-09-27T03:40:14;1.85;;;0.50;;
793;SDS011;380;48.738;9.214;2022-09-27T03:42:57;1.17;;;0.40;;
793;SDS011;380;48.738;9.214;2022-09-27T03:45:48;1.67;;;0.22;;
793;SDS011;380;48.738;9.214;2022-09-27T03:48:20;0.82;;;0.40;;
793;SDS011;380;48.738;9.214;2022-09-27T03:50:54;1.20;;;0.50;;
793;SDS011;380;48.738;9.214;2022-09-27T03:53:53;1.25;;;0.40;;
793;SDS011;380;48.738;9.214;2022-09-27T03:56:44;1.15;;;0.45;;
793;SDS011;380;48.738;9.214;2022-09-27T03:59:13;2.40;;;0.63;;
793;SDS011;380;48.738;9.214;2022-09-27T04:02:05;2.95;;;0.70;;
793;SDS011;380;48.738;9.214;2022-09-27T04:04:38;5.45;;;1.65;;
793;SDS011;380;48.738;9.214;2022-09-27T04:07:19;1.42;;;0.73;;
793;SDS011;380;48.738;9.214;2022-09-27T04:12:51;2.50;;;0.77;;
793;SDS011;380;48.738;9.214;2022-09-27T04:15:27;4.93;;;0.55;;
793;SDS011;380;48.738;9.214;2022-09-27T04:18:26;0.98;;;0.60;;
793;SDS011;380;48.738;9.214;2022-09-27T04:23:53;2.45;;;0.95;;
793;SDS011;380;48.738;9.214;2022-09-27T04:26:22;1.27;;;0.88;;
793;SDS011;380;48.738;9.214;2022-09-27T04:28:55;2.58;;;1.05;;
793;SDS011;380;48.738;9.214;2022-09-27T04:31:30;0.95;;;0.55;;
793;SDS011;380;48.738;9.214;2022-09-27T04:33:58;1.48;;;0.77;;
793;SDS011;380;48.738;9.214;2022-09-27T04:39:38;1.77;;;1.00;;
793;SDS011;380;48.738;9.214;2022-09-27T04:42:07;2.90;;;1.13;;
793;SDS011;380;48.738;9.214;2022-09-27T04:44:52;6.25;;;1.40;;
793;SDS011;380;48.738;9.214;2022-09-27T04:47:48;2.10;;;0.85;;
793;SDS011;380;48.738;9.214;2022-09-27T04:53:14;3.60;;;1.35;;
793;SDS011;380;48.738;9.214;2022-09-27T04:55:51;4.07;;;1.20;;
793;SDS011;380;48.738;9.214;2022-09-27T05:00:52;4.68;;;1.92;;
793;SDS011;380;48.738;9.214;2022-09-27T05:03:27;1.80;;;0.93;;
793;SDS011;380;48.738;9.214;2022-09-27T05:06:16;1.85;;;0.98;;
793;SDS011;380;48.738;9.214;2022-09-27T05:08:57;5.88;;;1.48;;
793;SDS011;380;48.738;9.214;2022-09-27T05:11:26;3.65;;;1.13;;
793;SDS011;380;48.738;9.214;2022-09-27T05:14:05;2.53;;;1.23;;
793;SDS011;380;48.738;9.214;2022-09-27T05:16:35;1.05;;;0.70;;
793;SDS011;380;48.738;9.214;2022-09-27T05:19:34;1.65;;;0.93;;
793;SDS011;380;48.738;9.214;2022-09-27T05:22:06;3.50;;;1.30;;
793;SDS011;380;48.738;9.214;2022-09-27T05:30:25;1.35;;;0.68;;
793;SDS011;380;48.738;9.214;2022-09-27T05:33:26;1.77;;;0.85;;
793;SDS011;380;48.738;9.214;2022-09-27T05:35:53;2.65;;;0.98;;
793;SDS011;380;48.738;9.214;2022-09-27T05:38:26;3.47;;;1.00;;
793;SDS011;380;48.738;9.214;2022-09-27T05:40:56;1.93;;;0.80;;
793;SDS011;380;48.738;9.214;2022-09-27T05:43:31;2.53;;;0.98;;
793;SDS011;380;48.738;9.214;2022-09-27T05:46:07;0.95;;;0.60;;
793;SDS011;380;48.738;9.214;2022-09-27T05:48:45;2.17;;;0.73;;
793;SDS011;380;48.738;9.214;2022-09-27T05:56:59;1.73;;;0.75;;
793;SDS011;380;48.738;9.214;2022-09-27T05:59:36;2.75;;;0.80;;
793;SDS011;380;48.738;9.214;2022-09-27T06:02:27;1.15;;;0.50;;
793;SDS011;380;48.738;9.214;2022-09-27T06:05:02;0.93;;;0.52;;
793;SDS011;380;48.738;9.214;2022-09-27T06:07:41;1.63;;;0.65;;
793;SDS011;380;48.738;9.214;2022-09-27T06:10:11;3.33;;;1.02;;
793;SDS011;380;48.738;9.214;2022-09-27T06:13:13;1.73;;;0.85;;
793;SDS011;380;48.738;9.214;2022-09-27T06:15:42;1.50;;;0.77;;
793;SDS011;380;48.738;9.214;2022-09-27T06:18:10;1.38;;;0.70;;
793;SDS011;380;48.738;9.214;2022-09-27T06:20:50;0.93;;;0.45;;
793;SDS011;380;48.738;9.214;2022-09-27T06:23:25;1.02;;;0.50;;
793;SDS011;380;48.738;9.214;2022-09-27T06:26:28;0.77;;;0.47;;
793;SDS011;380;48.738;9.214;2022-09-27T06:29:08;0.75;;;0.52;;
793;SDS011;380;48.738;9.214;2022-09-27T06:31:56;1.58;;;0.85;;
793;SDS011;380;48.738;9.214;2022-09-27T06:34:36;1.38;;;0.70;;
793;SDS011;380;48.738;9.214;2022-09-27T06:37:03;1.17;;;0.57;;
793;SDS011;380;48.738;9.214;2022-09-27T06:39:39;1.20;;;0.65;;
793;SDS011;380;48.738;9.214;2022-09-27T06:42:31;0.65;;;0.40;;
793;SDS011;380;48.738;9.214;2022-09-27T06:47:56;2.67;;;0.88;;
793;SDS011;380;48.738;9.214;2022-09-27T06:50:36;1.38;;;0.70;;
793;SDS011;380;48.738;9.214;2022-09-27T06:53:39;1.08;;;0.50;;
793;SDS011;380;48.738;9.214;2022-09-27T06:56:08;0.90;;;0.47;;
793;SDS011;380;48.738;9.214;2022-09-27T06:58:40;0.95;;;0.40;;
793;SDS011;380;48.738;9.214;2022-09-27T07:01:28;0.52;;;0.25;;
793;SDS011;380;48.738;9.214;2022-09-27T07:06:47;0.90;;;0.52;;
793;SDS011;380;48.738;9.214;2022-09-27T07:15:13;0.90;;;0.50;;
793;SDS011;380;48.738;9.214;2022-09-27T07:18:15;0.55;;;0.22;;
793;SDS011;380;48.738;9.214;2022-09-27T07:21:19;0.55;;;0.30;;
793;SDS011;380;48.738;9.214;2022-09-27T07:23:45;0.70;;;0.38;;
793;SDS011;380;48.738;9.214;2022-09-27T07:26:29;0.38;;;0.10;;
793;SDS011;380;48.738;9.214;2022-09-27T07:29:04;0.52;;;0.25;;
793;SDS011;380;48.738;9.214;2022-09-27T07:31:46;0.13;;;0.10;;
793;SDS011;380;48.738;9.214;2022-09-27T07:37:03;0.38;;;0.13;;
793;SDS011;380;48.738;9.214;2022-09-27T07:39:37;0.57;;;0.20;;
793;SDS011;380;48.738;9.214;2022-09-27T07:42:03;1.35;;;0.43;;
793;SDS011;380;48.738;9.214;2022-09-27T07:47:24;0.13;;;0.10;;
793;SDS011;380;48.738;9.214;2022-09-27T07:52:51;0.45;;;0.40;;
793;SDS011;380;48.738;9.214;2022-09-27T07:58:38;0.95;;;0.40;;
793;SDS011;380;48.738;9.214;2022-09-27T08:01:10;0.52;;;0.20;;
793;SDS011;380;48.738;9.214;2022-09-27T08:06:41;0.73;;;0.50;;
793;SDS011;380;48.738;9.214;2022-09-27T08:09:13;3.28;;;0.60;;
793;SDS011;380;48.738;9.214;2022-09-27T08:11:42;0.73;;;0.40;;
793;SDS011;380;48.738;9.214;2022-09-27T08:17:37;0.43;;;0.30;;
793;SDS011;380;48.738;9.214;2022-09-27T08:20:30;2.25;;;0.80;;
793;SDS011;380;48.738;9.214;2022-09-27T08:23:05;0.88;;;0.40;;
793;SDS011;380;48.738;9.214;2022-09-27T08:25:31;0.68;;;0.35;;
793;SDS011;380;48.738;9.214;2022-09-27T08:28:23;0.52;;;0.20;;
793;SDS011;380;48.738;9.214;2022-09-27T08:30:59;0.30;;;0.20;;
793;SDS011;380;48.738;9.214;2022-09-27T08:33:59;0.40;;;0.20;;
793;SDS011;380;48.738;9.214;2022-09-27T08:37:05;1.70;;;0.20;;
793;SDS011;380;48.738;9.214;2022-09-27T08:39:43;0.35;;;0.22;;
793;SDS011;380;48.738;9.214;2022-09-27T08:47:51;1.70;;;0.40;;
793;SDS011;380;48.738;9.214;2022-09-27T08:53:42;1.77;;;0.47;;
793;SDS011;380;48.738;9.214;2022-09-27T08:56:17;1.65;;;0.30;;
793;SDS011;380;48.738;9.214;2022-09-27T08:59:06;0.95;;;0.40;;
793;SDS011;380;48.738;9.214;2022-09-27T09:16:05;1.00;;;0.45;;
793;SDS011;380;48.738;9.214;2022-09-27T09:21:32;0.63;;;0.32;;
793;SDS011;380;48.738;9.214;2022-09-27T09:35:49;0.73;;;0.40;;
793;SDS011;380;48.738;9.214;2022-09-27T09:44:46;0.75;;;0.40;;
793;SDS011;380;48.738;9.214;2022-09-27T09:47:20;1.95;;;0.98;;
793;SDS011;380;48.738;9.214;2022-09-27T09:50:23;1.17;;;0.65;;
793;SDS011;380;48.738;9.214;2022-09-27T09:53:09;3.78;;;0.88;;
793;SDS011;380;48.738;9.214;2022-09-27T09:55:40;0.77;;;0.40;;
793;SDS011;380;48.738;9.214;2022-09-27T09:59:00;1.65;;;0.93;;
793;SDS011;380;48.738;9.214;2022-09-27T10:04:36;1.65;;;0.73;;
793;SDS011;380;48.738;9.214;2022-09-27T10:07:08;1.80;;;0.95;;
793;SDS011;380;48.738;9.214;2022-09-27T10:09:46;2.13;;;0.73;;
793;SDS011;380;48.738;9.214;2022-09-27T10:21:41;1.23;;;0.35;;
793;SDS011;380;48.738;9.214;2022-09-27T10:24:13;1.33;;;0.60;;
793;SDS011;380;48.738;9.214;2022-09-27T10:26:46;3.60;;;0.80;;
793;SDS011;380;48.738;9.214;2022-09-27T10:29:33;2.38;;;0.50;;
793;SDS011;380;48.738;9.214;2022-09-27T10:32:03;2.22;;;0.40;;
793;SDS011;380;48.738;9.214;2022-09-27T10:34:36;1.33;;;0.60;;
793;SDS011;380;48.738;9.214;2022-09-27T10:39:47;0.80;;;0.40;;
793;SDS011;380;48.738;9.214;2022-09-27T10:42:32;0.45;;;0.30;;
793;SDS011;380;48.738;9.214;2022-09-27T10:47:47;1.35;;;0.65;;
793;SDS011;380;48.738;9.214;2022-09-27T10:50:21;1.63;;;0.98;;
793;SDS011;380;48.738;9.214;2022-09-27T10:55:39;1.63;;;0.70;;
793;SDS011;380;48.738;9.214;2022-09-27T10:58:13;1.35;;;0.60;;
793;SDS011;380;48.738;9.214;2022-09-27T11:01:08;1.17;;;0.60;;
793;SDS011;380;48.738;9.214;2022-09-27T11:03:38;2.03;;;0.80;;
793;SDS011;380;48.738;9.214;2022-09-27T11:09:11;1.10;;;0.50;;
793;SDS011;380;48.738;9.214;2022-09-27T11:11:54;2.42;;;1.05;;
793;SDS011;380;48.738;9.214;2022-09-27T11:14:34;4.38;;;0.98;;
793;SDS011;380;48.738;9.214;2022-09-27T11:22:36;1.85;;;0.80;;
793;SDS011;380;48.738;9.214;2022-09-27T11:28:11;1.05;;;0.40;;
793;SDS011;380;48.738;9.214;2022-09-27T11:31:00;2.17;;;0.90;;
793;SDS011;380;48.738;9.214;2022-09-27T11:46:45;0.57;;;0.22;;
793;SDS011;380;48.738;9.214;2022-09-27T11:54:42;1.48;;;0.43;;
793;SDS011;380;48.738;9.214;2022-09-27T12:00:17;1.65;;;0.40;;
793;SDS011;380;48.738;9.214;2022-09-27T12:08:39;0.80;;;0.40;;
793;SDS011;380;48.738;9.214;2022-09-27T12:13:46;0.68;;;0.32;;
793;SDS011;380;48.738;9.214;2022-09-27T12:16:22;3.95;;;0.47;;
793;SDS011;380;48.738;9.214;2022-09-27T12:18:49;2.80;;;0.60;;
793;SDS011;380;48.738;9.214;2022-09-27T12:21:31;0.57;;;0.30;;
793;SDS011;380;48.738;9.214;2022-09-27T12:24:20;2.05;;;0.55;;
793;SDS011;380;48.738;9.214;2022-09-27T12:26:57;0.80;;;0.32;;
793;SDS011;380;48.738;9.214;2022-09-27T12:29:37;1.10;;;0.43;;
793;SDS011;380;48.738;9.214;2022-09-27T12:35:22;2.72;;;0.60;;
793;SDS011;380;48.738;9.214;2022-09-27T12:40:40;0.88;;;0.52;;
793;SDS011;380;48.738;9.214;2022-09-27T12:51:21;1.23;;;0.63;;
793;SDS011;380;48.738;9.214;2022-09-27T13:13:57;9.75;;;0.95;;
793;SDS011;380;48.738;9.214;2022-09-27T13:16:30;1.17;;;0.65;;
793;SDS011;380;48.738;9.214;2022-09-27T13:19:21;1.95;;;0.70;;
793;SDS011;380;48.738;9.214;2022-09-27T13:22:34;1.05;;;0.40;;
793;SDS011;380;48.738;9.214;2022-09-27T13:31:12;0.63;;;0.30;;
793;SDS011;380;48.738;9.214;2022-09-27T13:36:26;2.58;;;0.45;;
793;SDS011;380;48.738;9.214;2022-09-27T13:39:12;0.70;;;0.35;;
793;SDS011;380;48.738;9.214;2022-09-27T13:46:50;0.95;;;0.65;;
793;SDS011;380;48.738;9.214;2022-09-27T13:49:29;1.27;;;0.60;;
793;SDS011;380;48.738;9.214;2022-09-27T13:52:01;0.90;;;0.52;;
793;SDS011;380;48.738;9.214;2022-09-27T14:00:21;0.63;;;0.35;;
793;SDS011;380;48.738;9.214;2022-09-27T14:03:02;2.70;;;0.55;;
793;SDS011;380;48.738;9.214;2022-09-27T14:06:03;2.58;;;0.63;;
793;SDS011;380;48.738;9.214;2022-09-27T14:08:55;1.15;;;0.32;;
793;SDS011;380;48.738;9.214;2022-09-27T14:11:53;0.40;;;0.22;;
793;SDS011;380;48.738;9.214;2022-09-27T14:17:33;0.32;;;0.20;;
793;SDS011;380;48.738;9.214;2022-09-27T14:22:40;0.90;;;0.52;;
793;SDS011;380;48.738;9.214;2022-09-27T14:25:43;0.93;;;0.40;;
793;SDS011;380;48.738;9.214;2022-09-27T14:28:26;1.55;;;0.73;;
793;SDS011;380;48.738;9.214;2022-09-27T14:33:37;0.52;;;0.28;;
793;SDS011;380;48.738;9.214;2022-09-27T14:36:23;0.35;;;0.17;;
793;SDS011;380;48.738;9.214;2022-09-27T14:39:28;0.98;;;0.47;;
793;SDS011;380;48.738;9.214;2022-09-27T14:42:04;0.60;;;0.35;;
793;SDS011;380;48.738;9.214;2022-09-27T14:44:33;0.93;;;0.50;;
793;SDS011;380;48.738;9.214;2022-09-27T14:49:50;0.70;;;0.40;;
793;SDS011;380;48.738;9.214;2022-09-27T14:52:41;0.93;;;0.40;;
793;SDS011;380;48.738;9.214;2022-09-27T14:55:23;0.90;;;0.50;;
793;SDS011;380;48.738;9.214;2022-09-27T14:58:10;1.17;;;0.43;;
793;SDS011;380;48.738;9.214;2022-09-27T15:00:45;0.45;;;0.20;;
793;SDS011;380;48.738;9.214;2022-09-27T15:03:15;2.58;;;0.55;;
793;SDS011;380;48.738;9.214;2022-09-27T15:05:59;0.50;;;0.30;;
793;SDS011;380;48.738;9.214;2022-09-27T15:08:49;0.88;;;0.50;;
793;SDS011;380;48.738;9.214;2022-09-27T15:11:18;1.33;;;0.50;;
793;SDS011;380;48.738;9.214;2022-09-27T15:13:50;0.85;;;0.38;;
793;SDS011;380;48.738;9.214;2022-09-27T15:16:41;0.95;;;0.20;;
793;SDS011;380;48.738;9.214;2022-09-27T15:19:25;0.00;;;0.00;;
793;SDS011;380;48.738;9.214;2022-09-27T15:28:19;0.45;;;0.20;;
793;SDS011;380;48.738;9.214;2022-09-27T15:31:01;0.70;;;0.30;;
793;SDS011;380;48.738;9.214;2022-09-27T15:33:34;0.30;;;0.13;;
793;SDS011;380;48.738;9.214;2022-09-27T15:36:07;0.88;;;0.30;;
793;SDS011;380;48.738;9.214;2022-09-27T15:38:45;1.50;;;0.40;;
793;SDS011;380;48.738;9.214;2022-09-27T15:41:27;0.57;;;0.30;;
793;SDS011;380;48.738;9.214;2022-09-27T15:52:41;0.77;;;0.25;;
793;SDS011;380;48.738;9.214;2022-09-27T15:55:35;0.85;;;0.30;;
793;SDS011;380;48.738;9.214;2022-09-27T15:58:25;0.80;;;0.30;;
793;SDS011;380;48.738;9.214;2022-09-27T16:03:57;0.50;;;0.30;;
793;SDS011;380;48.738;9.214;2022-09-27T16:06:29;1.20;;;0.40;;
793;SDS011;380;48.738;9.214;2022-09-27T16:12:08;1.42;;;0.40;;
793;SDS011;380;48.738;9.214;2022-09-27T16:14:52;0.82;;;0.50;;
793;SDS011;380;48.738;9.214;2022-09-27T16:17:36;0.50;;;0.30;;
793;SDS011;380;48.738;9.214;2022-09-27T16:23:15;1.33;;;0.30;;
793;SDS011;380;48.738;9.214;2022-09-27T16:26:23;0.80;;;0.38;;
793;SDS011;380;48.738;9.214;2022-09-27T16:28:53;1.58;;;1.02;;
793;SDS011;380;48.738;9.214;2022-09-27T16:31:28;0.50;;;0.20;;
793;SDS011;380;48.738;9.214;2022-09-27T16:34:24;0.85;;;0.40;;
793;SDS011;380;48.738;9.214;2022-09-27T16:39:45;0.98;;;0.47;;
793;SDS011;380;48.738;9.214;2022-09-27T16:42:20;1.10;;;0.40;;
793;SDS011;380;48.738;9.214;2022-09-27T16:44:55;0.70;;;0.40;;
793;SDS011;380;48.738;9.214;2022-09-27T16:47:27;3.38;;;0.45;;
793;SDS011;380;48.738;9.214;2022-09-27T16:49:56;1.73;;;0.65;;
793;SDS011;380;48.738;9.214;2022-09-27T16:52:41;1.83;;;0.75;;
793;SDS011;380;48.738;9.214;2022-09-27T17:00:41;0.63;;;0.30;;
793;SDS011;380;48.738;9.214;2022-09-27T17:03:14;0.25;;;0.20;;
793;SDS011;380;48.738;9.214;2022-09-27T17:05:59;1.58;;;0.80;;
793;SDS011;380;48.738;9.214;2022-09-27T17:08:48;1.35;;;0.70;;
793;SDS011;380;48.738;9.214;2022-09-27T17:11:24;3.78;;;2.38;;
793;SDS011;380;48.738;9.214;2022-09-27T17:14:18;4.85;;;2.58;;
793;SDS011;380;48.738;9.214;2022-09-27T17:16:54;3.78;;;0.95;;
793;SDS011;380;48.738;9.214;2022-09-27T17:19:27;3.90;;;1.43;;
793;SDS011;380;48.738;9.214;2022-09-27T17:21:59;2.42;;;1.50;;
793;SDS011;380;48.738;9.214;2022-09-27T17:24:33;3.53;;;1.75;;
793;SDS011;380;48.738;9.214;2022-09-27T17:27:09;1.75;;;0.93;;
793;SDS011;380;48.738;9.214;2022-09-27T17:29:43;1.33;;;0.30;;
793;SDS011;380;48.738;9.214;2022-09-27T17:35:19;1.48;;;0.57;;
793;SDS011;380;48.738;9.214;2022-09-27T17:41:15;2.85;;;0.68;;
793;SDS011;380;48.738;9.214;2022-09-27T17:43:58;2.10;;;0.70;;
793;SDS011;380;48.738;9.214;2022-09-27T17:46:34;1.85;;;0.90;;
793;SDS011;380;48.738;9.214;2022-09-27T17:49:26;3.55;;;1.00;;
793;SDS011;380;48.738;9.214;2022-09-27T17:52:20;1.90;;;1.20;;
793;SDS011;380;48.738;9.214;2022-09-27T17:55:08;2.05;;;0.82;;
793;SDS011;380;48.738;9.214;2022-09-27T17:57:45;5.18;;;0.90;;
793;SDS011;380;48.738;9.214;2022-09-27T18:00:34;1.25;;;0.60;;
793;SDS011;380;48.738;9.214;2022-09-27T18:03:12;0.93;;;0.50;;
793;SDS011;380;48.738;9.214;2022-09-27T18:05:54;1.00;;;0.57;;
793;SDS011;380;48.738;9.214;2022-09-27T18:08:29;0.50;;;0.30;;
793;SDS011;380;48.738;9.214;2022-09-27T18:13:31;1.10;;;0.60;;
793;SDS011;380;48.738;9.214;2022-09-27T18:16:20;1.08;;;0.65;;
793;SDS011;380;48.738;9.214;2022-09-27T18:19:00;1.13;;;0.52;;
793;SDS011;380;48.738;9.214;2022-09-27T18:21:42;2.28;;;0.70;;
793;SDS011;380;48.738;9.214;2022-09-27T18:24:24;1.15;;;0.73;;
793;SDS011;380;48.738;9.214;2022-09-27T18:26:59;3.65;;;1.10;;
793;SDS011;380;48.738;9.214;2022-09-27T18:29:36;2.78;;;0.80;;
793;SDS011;380;48.738;9.214;2022-09-27T18:32:25;2.67;;;1.65;;
793;SDS011;380;48.738;9.214;2022-09-27T18:35:08;1.20;;;0.80;;
793;SDS011;380;48.738;9.214;2022-09-27T18:38:00;2.17;;;0.70;;
793;SDS011;380;48.738;9.214;2022-09-27T18:40:37;1.23;;;0.60;;
793;SDS011;380;48.738;9.214;2022-09-27T18:43:07;1.65;;;0.82;;
793;SDS011;380;48.738;9.214;2022-09-27T18:45:51;1.73;;;0.52;;
793;SDS011;380;48.738;9.214;2022-09-27T18:48:29;1.40;;;0.75;;
793;SDS011;380;48.738;9.214;2022-09-27T18:50:59;1.73;;;1.00;;
793;SDS011;380;48.738;9.214;2022-09-27T18:53:46;1.33;;;0.98;;
793;SDS011;380;48.738;9.214;2022-09-27T18:56:23;2.83;;;0.98;;
793;SDS011;380;48.738;9.214;2022-09-27T18:59:15;0.88;;;0.47;;
793;SDS011;380;48.738;9.214;2022-09-27T19:01:44;2.75;;;0.70;;
793;SDS011;380;48.738;9.214;2022-09-27T19:04:18;0.93;;;0.50;;
793;SDS011;380;48.738;9.214;2022-09-27T19:06:51;1.92;;;0.93;;
793;SDS011;380;48.738;9.214;2022-09-27T19:12:16;1.52;;;0.88;;
793;SDS011;380;48.738;9.214;2022-09-27T19:15:14;2.30;;;1.88;;
793;SDS011;380;48.738;9.214;2022-09-27T19:17:49;3.85;;;1.90;;
793;SDS011;380;48.738;9.214;2022-09-27T19:20:20;5.70;;;2.17;;
793;SDS011;380;48.738;9.214;2022-09-27T19:26:15;0.95;;;0.70;;
793;SDS011;380;48.738;9.214;2022-09-27T19:28:49;2.03;;;0.88;;
793;SDS011;380;48.738;9.214;2022-09-27T19:31:25;1.17;;;0.70;;
793;SDS011;380;48.738;9.214;2022-09-27T19:36:51;3.30;;;1.73;;
793;SDS011;380;48.738;9.214;2022-09-27T19:39:29;1.63;;;0.90;;
793;SDS011;380;48.738;9.214;2022-09-27T19:42:06;4.97;;;1.83;;
793;SDS011;380;48.738;9.214;2022-09-27T19:44:43;2.33;;;1.63;;
793;SDS011;380;48.738;9.214;2022-09-27T19:47:09;4.63;;;2.45;;
793;SDS011;380;48.738;9.214;2022-09-27T19:52:33;5.07;;;3.13;;
793;SDS011;380;48.738;9.214;2022-09-27T19:55:10;2.57;;;1.73;;
793;SDS011;380;48.738;9.214;2022-09-27T19:57:45;2.83;;;1.50;;
793;SDS011;380;48.738;9.214;2022-09-27T20:00:36;3.25;;;1.38;;
793;SDS011;380;48.738;9.214;2022-09-27T20:03:08;2.50;;;1.35;;
793;SDS011;380;48.738;9.214;2022-09-27T20:05:56;1.23;;;0.70;;
793;SDS011;380;48.738;9.214;2022-09-27T20:08:47;2.78;;;1.65;;
793;SDS011;380;48.738;9.214;2022-09-27T20:11:36;2.05;;;0.95;;
793;SDS011;380;48.738;9.214;2022-09-27T20:14:06;1.92;;;1.02;;
793;SDS011;380;48.738;9.214;2022-09-27T20:16:35;3.22;;;1.63;;
793;SDS011;380;48.738;9.214;2022-09-27T20:19:16;2.17;;;1.10;;
793;SDS011;380;48.738;9.214;2022-09-27T20:22:11;2.03;;;1.08;;
793;SDS011;380;48.738;9.214;2022-09-27T20:25:10;1.83;;;1.00;;
793;SDS011;380;48.738;9.214;2022-09-27T20:27:50;1.20;;;0.68;;
793;SDS011;380;48.738;9.214;2022-09-27T20:30:42;1.70;;;1.08;;
793;SDS011;380;48.738;9.214;2022-09-27T20:36:06;1.58;;;1.00;;
793;SDS011;380;48.738;9.214;2022-09-27T20:38:51;1.98;;;0.80;;
793;SDS011;380;48.738;9.214;2022-09-27T20:41:27;0.73;;;0.47;;
793;SDS011;380;48.738;9.214;2022-09-27T20:44:00;3.40;;;0.60;;
793;SDS011;380;48.738;9.214;2022-09-27T20:49:22;2.38;;;0.70;;
793;SDS011;380;48.738;9.214;2022-09-27T20:55:12;1.35;;;0.68;;
793;SDS011;380;48.738;9.214;2022-09-27T20:57:51;1.83;;;1.00;;
793;SDS011;380;48.738;9.214;2022-09-27T21:00:23;1.58;;;0.85;;
793;SDS011;380;48.738;9.214;2022-09-27T21:03:10;5.50;;;3.10;;
793;SDS011;380;48.738;9.214;2022-09-27T21:06:05;4.22;;;1.58;;
793;SDS011;380;48.738;9.214;2022-09-27T21:08:53;3.03;;;1.50;;
793;SDS011;380;48.738;9.214;2022-09-27T21:11:27;1.40;;;0.90;;
793;SDS011;380;48.738;9.214;2022-09-27T21:14:05;2.28;;;0.95;;
793;SDS011;380;48.738;9.214;2022-09-27T21:17:05;2.90;;;1.17;;
793;SDS011;380;48.738;9.214;2022-09-27T21:19:41;1.05;;;0.55;;
793;SDS011;380;48.738;9.214;2022-09-27T21:22:23;1.17;;;0.57;;
793;SDS011;380;48.738;9.214;2022-09-27T21:25:07;1.33;;;0.60;;
793;SDS011;380;48.738;9.214;2022-09-27T21:27:36;2.35;;;0.70;;
793;SDS011;380;48.738;9.214;2022-09-27T21:30:13;1.50;;;0.70;;
793;SDS011;380;48.738;9.214;2022-09-27T21:32:39;1.88;;;1.00;;
793;SDS011;380;48.738;9.214;2022-09-27T21:35:14;1.35;;;0.70;;
793;SDS011;380;48.738;9.214;2022-09-27T21:37:41;1.33;;;0.77;;
793;SDS011;380;48.738;9.214;2022-09-27T21:40:07;1.27;;;0.60;;
793;SDS011;380;48.738;9.214;2022-09-27T21:42:59;1.02;;;0.60;;
793;SDS011;380;48.738;9.214;2022-09-27T21:45:30;0.95;;;0.55;;
793;SDS011;380;48.738;9.214;2022-09-27T21:48:00;0.85;;;0.50;;
793;SDS011;380;48.738;9.214;2022-09-27T21:50:32;1.17;;;0.60;;
793;SDS011;380;48.738;9.214;2022-09-27T21:53:13;1.48;;;0.80;;
793;SDS011;380;48.738;9.214;2022-09-27T21:56:02;1.17;;;0.60;;
793;SDS011;380;48.738;9.214;2022-09-27T21:58:47;0.77;;;0.50;;
793;SDS011;380;48.738;9.214;2022-09-27T22:01:28;1.30;;;0.77;;
793;SDS011;380;48.738;9.214;2022-09-27T22:04:16;1.17;;;0.70;;
793;SDS011;380;48.738;9.214;2022-09-27T22:06:55;1.13;;;0.43;;
793;SDS011;380;48.738;9.214;2022-09-27T22:09:37;1.77;;;0.80;;
793;SDS011;380;48.738;9.214;2022-09-27T22:12:13;0.93;;;0.50;;
793;SDS011;380;48.738;9.214;2022-09-27T22:15:00;1.00;;;0.55;;
793;SDS011;380;48.738;9.214;2022-09-27T22:17:50;3.28;;;1.08;;
793;SDS011;380;48.738;9.214;2022-09-27T22:20:29;1.20;;;0.70;;
793;SDS011;380;48.738;9.214;2022-09-27T22:23:16;1.75;;;0.70;;
793;SDS011;380;48.738;9.214;2022-09-27T22:25:46;1.15;;;0.65;;
793;SDS011;380;48.738;9.214;2022-09-27T22:28:18;1.13;;;0.70;;
793;SDS011;380;48.738;9.214;2022-09-27T22:30:51;1.25;;;0.60;;
793;SDS011;380;48.738;9.214;2022-09-27T22:36:43;2.10;;;0.75;;
793;SDS011;380;48.738;9.214;2022-09-27T22:39:54;1.08;;;0.65;;
793;SDS011;380;48.738;9.214;2022-09-27T22:45:16;2.25;;;0.60;;
793;SDS011;380;48.738;9.214;2022-09-27T22:47:54;1.50;;;0.55;;
793;SDS011;380;48.738;9.214;2022-09-27T22:50:21;0.82;;;0.47;;
793;SDS011;380;48.738;9.214;2022-09-27T22:52:56;0.93;;;0.50;;
793;SDS011;380;48.738;9.214;2022-09-27T22:55:27;0.98;;;0.50;;
793;SDS011;380;48.738;9.214;2022-09-27T22:58:09;2.75;;;1.90;;
793;SDS011;380;48.738;9.214;2022-09-27T23:00:51;1.67;;;0.82;;
793;SDS011;380;48.738;9.214;2022-09-27T23:03:17;4.03;;;0.70;;
793;SDS011;380;48.738;9.214;2022-09-27T23:05:44;1.52;;;0.82;;
793;SDS011;380;48.738;9.214;2022-09-27T23:08:51;0.80;;;0.43;;
793;SDS011;380;48.738;9.214;2022-09-27T23:11:59;1.27;;;0.63;;
793;SDS011;380;48.738;9.214;2022-09-27T23:14:25;1.25;;;0.63;;